createdAt,value
2023-04-10T00:00:11.332Z,15.88
2023-04-10T00:02:38.545Z,14.73
2023-04-10T00:05:06.623Z,14.30
2023-04-10T00:07:34.203Z,14.48
2023-04-10T00:10:01.226Z,15.07
2023-04-10T00:12:28.757Z,15.75
2023-04-10T00:14:55.840Z,15.40
2023-04-10T00:17:24.806Z,15.18
2023-04-10T00:19:52.205Z,15.05
2023-04-10T00:22:19.133Z,14.05
2023-04-10T00:24:46.095Z,14.25
2023-04-10T00:27:13.037Z,14.57
2023-04-10T00:29:40.057Z,13.85
2023-04-10T00:32:07.140Z,14.90
2023-04-10T00:34:34.370Z,14.45
2023-04-10T00:37:01.348Z,14.18
2023-04-10T00:39:28.447Z,14.77
2023-04-10T00:41:55.859Z,13.70
2023-04-10T00:44:22.826Z,15.18
2023-04-10T00:46:49.823Z,13.95
2023-04-10T00:49:18.566Z,15.77
2023-04-10T00:51:45.651Z,14.98
2023-04-10T00:54:12.710Z,15.13
2023-04-10T00:56:40.528Z,14.93
2023-04-10T00:59:07.837Z,13.82
2023-04-10T01:01:34.957Z,13.95
2023-04-10T01:04:02.478Z,13.13
2023-04-10T01:06:44.814Z,14.77
2023-04-10T01:09:29.959Z,14.98
2023-04-10T01:12:11.757Z,14.43
2023-04-10T01:15:00.768Z,15.43
2023-04-10T01:17:46.529Z,13.70
2023-04-10T01:20:22.733Z,15.20
2023-04-10T01:23:28.694Z,13.17
2023-04-10T01:26:04.991Z,14.27
2023-04-10T01:28:50.716Z,14.40
2023-04-10T01:31:22.030Z,14.57
2023-04-10T01:33:57.802Z,13.07
2023-04-10T01:36:31.253Z,14.00
2023-04-10T01:38:59.121Z,13.15
2023-04-10T01:41:27.597Z,12.25
2023-04-10T01:43:56.438Z,13.32
2023-04-10T01:46:25.326Z,13.90
2023-04-10T01:48:55.692Z,13.82
2023-04-10T01:51:23.924Z,13.18
2023-04-10T01:53:52.519Z,15.23
2023-04-10T01:56:24.554Z,13.52
2023-04-10T01:58:51.516Z,14.73
2023-04-10T02:01:29.188Z,13.65
2023-04-10T02:03:59.057Z,13.13
2023-04-10T02:06:39.431Z,13.85
2023-04-10T02:09:16.520Z,13.55
2023-04-10T02:11:53.281Z,13.57
2023-04-10T02:14:23.222Z,14.07
2023-04-10T02:17:13.745Z,14.93
2023-04-10T02:19:41.577Z,14.23
2023-04-10T02:22:08.854Z,14.35
2023-04-10T02:24:35.970Z,14.65
2023-04-10T02:27:02.920Z,14.50
2023-04-10T02:29:29.913Z,14.45
2023-04-10T02:31:56.901Z,13.70
2023-04-10T02:34:23.852Z,13.52
2023-04-10T02:36:50.792Z,15.30
2023-04-10T02:39:18.200Z,15.98
2023-04-10T02:41:51.100Z,15.95
2023-04-10T02:44:18.276Z,16.50
2023-04-10T02:46:46.653Z,17.10
2023-04-10T02:49:14.639Z,14.25
2023-04-10T02:51:41.662Z,14.52
2023-04-10T02:54:08.905Z,14.52
2023-04-10T02:56:37.703Z,13.43
2023-04-10T02:59:04.923Z,14.05
2023-04-10T03:01:32.776Z,15.35
2023-04-10T03:04:00.579Z,16.02
2023-04-10T03:06:31.495Z,14.90
2023-04-10T03:08:58.813Z,15.57
2023-04-10T03:11:27.429Z,14.25
2023-04-10T03:13:54.943Z,15.82
2023-04-10T03:16:22.335Z,15.95
2023-04-10T03:18:49.549Z,16.13
2023-04-10T03:21:16.741Z,15.10
2023-04-10T03:23:43.709Z,15.00
2023-04-10T03:26:11.670Z,16.13
2023-04-10T03:28:39.942Z,16.85
2023-04-10T03:31:10.775Z,14.95
2023-04-10T03:33:39.094Z,15.63
2023-04-10T03:36:07.100Z,15.80
2023-04-10T03:38:34.195Z,16.70
2023-04-10T03:41:01.263Z,15.18
2023-04-10T03:43:31.528Z,16.27
2023-04-10T03:45:59.359Z,14.63
2023-04-10T03:48:28.448Z,14.52
2023-04-10T03:50:55.754Z,14.65
2023-04-10T03:53:23.403Z,15.55
2023-04-10T03:55:53.041Z,15.00
2023-04-10T03:58:21.810Z,16.27
2023-04-10T04:00:49.103Z,15.18
2023-04-10T04:03:31.741Z,15.55
2023-04-10T04:06:17.504Z,14.90
2023-04-10T04:09:04.388Z,16.08
2023-04-10T04:11:54.697Z,15.32
2023-04-10T04:14:40.309Z,15.27
2023-04-10T04:17:46.408Z,14.10
2023-04-10T04:20:32.037Z,17.35
2023-04-10T04:23:15.653Z,17.05
2023-04-10T04:25:42.718Z,14.80
2023-04-10T04:28:30.179Z,15.85
2023-04-10T04:31:17.451Z,17.13
2023-04-10T04:34:07.372Z,16.30
2023-04-10T04:36:50.889Z,17.52
2023-04-10T04:39:17.900Z,16.48
2023-04-10T04:41:44.852Z,17.02
2023-04-10T04:44:19.581Z,17.35
2023-04-10T04:47:24.418Z,16.90
2023-04-10T04:50:04.315Z,16.58
2023-04-10T04:52:51.248Z,16.35
2023-04-10T04:55:32.849Z,17.00
2023-04-10T04:58:20.554Z,16.42
2023-04-10T05:01:08.630Z,15.20
2023-04-10T05:04:04.959Z,16.63
2023-04-10T05:06:50.737Z,16.65
2023-04-10T05:09:44.040Z,17.02
2023-04-10T05:12:19.422Z,19.70
2023-04-10T05:15:05.565Z,18.95
2023-04-10T05:17:32.538Z,17.77
2023-04-10T05:20:36.088Z,18.08
2023-04-10T05:23:36.670Z,18.05
2023-04-10T05:26:15.855Z,16.08
2023-04-10T05:29:01.678Z,15.80
2023-04-10T05:31:55.112Z,16.98
2023-04-10T05:34:40.053Z,16.60
2023-04-10T05:37:13.130Z,16.77
2023-04-10T05:39:50.286Z,18.08
2023-04-10T05:42:33.884Z,18.20
2023-04-10T05:45:19.419Z,18.52
2023-04-10T05:48:03.012Z,18.55
2023-04-10T05:50:42.378Z,19.63
2023-04-10T05:53:32.546Z,18.27
2023-04-10T05:56:22.278Z,15.75
2023-04-10T05:59:31.184Z,15.20
2023-04-10T06:02:21.958Z,13.07
2023-04-10T06:04:49.897Z,13.52
2023-04-10T06:07:17.083Z,15.13
2023-04-10T06:09:44.105Z,13.50
2023-04-10T06:12:11.227Z,13.43
2023-04-10T06:14:40.527Z,14.25
2023-04-10T06:17:08.098Z,13.63
2023-04-10T06:19:35.850Z,12.30
2023-04-10T06:22:02.820Z,12.70
2023-04-10T06:24:29.901Z,13.73
2023-04-10T06:26:57.201Z,14.05
2023-04-10T06:29:24.811Z,13.70
2023-04-10T06:31:52.120Z,14.05
2023-04-10T06:34:20.197Z,14.70
2023-04-10T06:36:56.764Z,13.75
2023-04-10T06:39:23.786Z,14.07
2023-04-10T06:41:50.773Z,13.93
2023-04-10T06:44:32.589Z,14.00
2023-04-10T06:46:59.773Z,14.20
2023-04-10T06:49:26.744Z,14.43
2023-04-10T06:51:53.753Z,14.10
2023-04-10T06:54:20.892Z,12.90
2023-04-10T06:56:47.839Z,14.15
2023-04-10T06:59:14.874Z,13.18
2023-04-10T07:01:41.867Z,14.00
2023-04-10T07:04:08.982Z,14.23
2023-04-10T07:06:36.084Z,14.32
2023-04-10T07:09:03.097Z,13.25
2023-04-10T07:11:30.070Z,12.55
2023-04-10T07:13:58.932Z,12.15
2023-04-10T07:16:26.090Z,12.07
2023-04-10T07:18:53.422Z,13.07
2023-04-10T07:21:20.807Z,12.43
2023-04-10T07:23:47.943Z,12.32
2023-04-10T07:26:15.075Z,10.63
2023-04-10T07:28:42.134Z,10.60
2023-04-10T07:31:09.194Z,9.25
2023-04-10T07:33:36.627Z,10.35
2023-04-10T07:36:05.965Z,10.00
2023-04-10T07:38:33.289Z,8.70
2023-04-10T07:41:00.556Z,11.15
2023-04-10T07:43:27.563Z,11.85
2023-04-10T07:45:54.567Z,10.50
2023-04-10T07:48:21.545Z,10.05
2023-04-10T07:50:48.634Z,10.38
2023-04-10T07:53:15.810Z,9.77
2023-04-10T07:55:44.440Z,10.10
2023-04-10T07:58:11.484Z,9.73
2023-04-10T08:00:38.480Z,9.85
2023-04-10T08:03:06.583Z,9.25
2023-04-10T08:05:34.230Z,10.02
2023-04-10T08:08:01.219Z,9.93
2023-04-10T08:10:28.215Z,9.88
2023-04-10T08:12:55.314Z,9.68
2023-04-10T08:15:22.247Z,11.50
2023-04-10T08:17:49.237Z,9.77
2023-04-10T08:20:16.308Z,10.80
2023-04-10T08:22:43.278Z,10.63
2023-04-10T08:25:10.428Z,11.07
2023-04-10T08:27:37.765Z,11.88
2023-04-10T08:30:05.426Z,10.45
2023-04-10T08:32:32.765Z,11.73
2023-04-10T08:34:59.835Z,11.73
2023-04-10T08:37:27.038Z,11.88
2023-04-10T08:39:54.244Z,10.90
2023-04-10T08:42:22.416Z,12.38
2023-04-10T08:44:50.974Z,12.48
2023-04-10T08:47:21.543Z,12.15
2023-04-10T08:49:53.670Z,11.57
2023-04-10T08:52:25.812Z,13.57
2023-04-10T08:54:56.829Z,12.45
2023-04-10T08:57:24.204Z,13.43
2023-04-10T08:59:51.822Z,15.48
2023-04-10T09:02:20.006Z,16.20
2023-04-10T09:04:55.407Z,15.35
2023-04-10T09:07:23.560Z,15.98
2023-04-10T09:09:50.499Z,14.82
2023-04-10T09:12:17.479Z,14.30
2023-04-10T09:14:44.548Z,13.73
2023-04-10T09:17:18.504Z,13.52
2023-04-10T09:19:48.165Z,11.93
2023-04-10T09:22:16.347Z,12.07
2023-04-10T09:24:47.024Z,12.27
2023-04-10T09:27:31.879Z,11.60
2023-04-10T09:29:59.552Z,10.70
2023-04-10T09:32:44.157Z,11.18
2023-04-10T09:35:13.651Z,10.98
2023-04-10T09:37:42.482Z,11.85
2023-04-10T09:40:26.843Z,11.15
2023-04-10T09:42:56.300Z,11.32
2023-04-10T09:45:23.301Z,10.60
2023-04-10T09:48:08.168Z,11.63
2023-04-10T09:50:41.100Z,11.40
2023-04-10T09:53:16.775Z,11.18
2023-04-10T09:55:44.274Z,10.77
2023-04-10T09:58:12.553Z,10.30
2023-04-10T10:00:42.161Z,9.57
2023-04-10T10:03:12.375Z,10.40
2023-04-10T10:05:43.052Z,10.68
2023-04-10T10:08:11.616Z,9.55
2023-04-10T10:10:58.049Z,9.00
2023-04-10T10:13:31.918Z,9.90
2023-04-10T10:16:04.897Z,9.65
2023-04-10T10:19:02.118Z,10.35
2023-04-10T10:21:30.319Z,10.27
2023-04-10T10:23:59.613Z,10.30
2023-04-10T10:26:28.587Z,10.75
2023-04-10T10:28:58.162Z,11.43
2023-04-10T10:31:26.218Z,11.35
2023-04-10T10:33:53.422Z,10.88
2023-04-10T10:36:22.466Z,10.70
2023-04-10T10:39:21.472Z,11.05
2023-04-10T10:42:11.273Z,10.27
2023-04-10T10:45:00.155Z,11.40
2023-04-10T10:47:29.212Z,10.70
2023-04-10T10:50:00.391Z,11.07
2023-04-10T10:52:43.543Z,10.57
2023-04-10T10:55:22.424Z,12.63
2023-04-10T10:57:52.140Z,10.82
2023-04-10T11:00:21.057Z,12.00
2023-04-10T11:03:12.973Z,11.68
2023-04-10T11:05:59.179Z,12.35
2023-04-10T11:08:46.960Z,12.27
2023-04-10T11:11:21.800Z,11.32
2023-04-10T11:13:57.530Z,11.07
2023-04-10T11:16:31.708Z,11.27
2023-04-10T11:19:12.889Z,11.45
2023-04-10T11:22:05.317Z,10.57
2023-04-10T11:24:58.347Z,10.52
2023-04-10T11:27:45.967Z,10.32
2023-04-10T11:30:36.150Z,10.63
2023-04-10T11:33:04.735Z,9.93
2023-04-10T11:35:32.960Z,10.18
2023-04-10T11:38:13.458Z,13.25
2023-04-10T11:40:58.130Z,13.82
2023-04-10T11:43:25.560Z,12.93
2023-04-10T11:46:03.354Z,13.25
2023-04-10T11:48:31.290Z,13.48
2023-04-10T11:51:00.144Z,13.30
2023-04-10T11:53:27.989Z,13.95
2023-04-10T11:55:55.517Z,14.23
2023-04-10T11:58:27.799Z,14.38
2023-04-10T12:01:03.302Z,14.05
2023-04-10T12:03:34.545Z,14.13
2023-04-10T12:06:01.866Z,14.18
2023-04-10T12:08:37.253Z,14.50
2023-04-10T12:11:04.373Z,14.15
2023-04-10T12:13:32.522Z,14.65
2023-04-10T12:16:02.200Z,13.75
2023-04-10T12:18:30.905Z,14.18
2023-04-10T12:20:59.583Z,14.40
2023-04-10T12:23:27.974Z,14.07
2023-04-10T12:26:10.799Z,14.77
2023-04-10T12:28:39.292Z,13.90
2023-04-10T12:31:07.078Z,13.75
2023-04-10T12:33:34.163Z,13.98
2023-04-10T12:36:01.623Z,13.95
2023-04-10T12:38:36.566Z,14.20
2023-04-10T12:41:04.168Z,15.60
2023-04-10T12:43:39.686Z,13.82
2023-04-10T12:46:08.874Z,14.13
2023-04-10T12:48:36.326Z,14.60
2023-04-10T12:51:04.268Z,14.52
2023-04-10T12:53:31.426Z,13.05
2023-04-10T12:56:04.100Z,12.55
2023-04-10T12:58:31.786Z,13.32
2023-04-10T13:01:02.973Z,12.93
2023-04-10T13:03:30.203Z,11.00
2023-04-10T13:05:57.377Z,14.05
2023-04-10T13:08:24.401Z,14.63
2023-04-10T13:10:51.683Z,15.27
2023-04-10T13:13:18.991Z,14.98
2023-04-10T13:15:46.055Z,14.43
2023-04-10T13:18:13.092Z,13.98
2023-04-10T13:20:41.443Z,14.02
2023-04-10T13:23:08.804Z,13.20
2023-04-10T13:25:39.944Z,13.18
2023-04-10T13:28:11.643Z,10.77
2023-04-10T13:30:42.443Z,13.32
2023-04-10T13:33:10.221Z,12.63
2023-04-10T13:35:37.387Z,12.95
2023-04-10T13:38:04.413Z,14.32
2023-04-10T13:40:31.501Z,13.93
2023-04-10T13:42:58.521Z,14.73
2023-04-10T13:45:25.515Z,13.40
2023-04-10T13:47:52.574Z,13.38
2023-04-10T13:50:19.701Z,13.82
2023-04-10T13:52:46.741Z,12.88
2023-04-10T13:55:13.754Z,13.32
2023-04-10T13:57:41.339Z,14.82
2023-04-10T14:00:10.338Z,14.10
2023-04-10T14:02:40.518Z,13.38
2023-04-10T14:05:08.284Z,14.50
2023-04-10T14:07:35.586Z,13.15
2023-04-10T14:10:03.271Z,12.20
2023-04-10T14:12:30.961Z,12.25
2023-04-10T14:14:59.100Z,13.45
2023-04-10T14:17:26.124Z,13.43
2023-04-10T14:19:54.144Z,12.30
2023-04-10T14:22:21.392Z,13.20
2023-04-10T14:24:48.979Z,12.57
2023-04-10T14:27:17.297Z,13.07
2023-04-10T14:29:50.869Z,13.27
2023-04-10T14:32:21.308Z,12.57
2023-04-10T14:34:48.327Z,13.35
2023-04-10T14:37:15.657Z,12.10
2023-04-10T14:39:42.817Z,11.48
2023-04-10T14:42:10.743Z,13.48
2023-04-10T14:44:37.916Z,12.32
2023-04-10T14:47:08.126Z,12.73
2023-04-10T14:49:35.188Z,11.95
2023-04-10T14:52:02.142Z,12.32
2023-04-10T14:54:29.105Z,12.77
2023-04-10T14:56:58.342Z,13.60
2023-04-10T14:59:25.422Z,15.38
2023-04-10T15:01:54.077Z,12.68
2023-04-10T15:04:21.273Z,13.85
2023-04-10T15:06:48.347Z,12.95
2023-04-10T15:09:15.382Z,14.07
2023-04-10T15:11:42.502Z,13.60
2023-04-10T15:14:09.502Z,13.57
2023-04-10T15:16:36.550Z,13.00
2023-04-10T15:19:03.564Z,13.02
2023-04-10T15:21:31.374Z,15.27
2023-04-10T15:23:58.373Z,12.60
2023-04-10T15:26:25.500Z,14.57
2023-04-10T15:28:52.724Z,13.48
2023-04-10T15:31:22.973Z,13.77
2023-04-10T15:33:52.395Z,15.20
2023-04-10T15:36:19.576Z,13.90
2023-04-10T15:38:47.498Z,13.88
2023-04-10T15:41:16.618Z,14.50
2023-04-10T15:43:43.597Z,14.60
2023-04-10T15:46:10.927Z,13.77
2023-04-10T15:48:37.943Z,16.73
2023-04-10T15:51:06.205Z,16.67
2023-04-10T15:53:34.543Z,15.70
2023-04-10T15:56:03.725Z,18.05
2023-04-10T15:58:30.726Z,18.00
2023-04-10T16:00:57.763Z,16.40
2023-04-10T16:03:26.050Z,16.48
2023-04-10T16:05:54.474Z,15.23
2023-04-10T16:08:21.432Z,16.27
2023-04-10T16:10:48.399Z,16.05
2023-04-10T16:13:15.593Z,16.25
2023-04-10T16:15:42.583Z,15.52
2023-04-10T16:18:09.607Z,15.23
2023-04-10T16:20:36.789Z,15.27
2023-04-10T16:23:03.847Z,15.40
2023-04-10T16:25:31.274Z,17.75
2023-04-10T16:27:58.259Z,16.25
2023-04-10T16:30:25.434Z,16.85
2023-04-10T16:32:52.552Z,15.93
2023-04-10T16:35:19.950Z,15.63
2023-04-10T16:37:46.974Z,16.33
2023-04-10T16:40:14.134Z,16.70
2023-04-10T16:42:42.971Z,16.52
2023-04-10T16:45:10.769Z,15.75
2023-04-10T16:47:38.603Z,15.25
2023-04-10T16:50:06.320Z,16.27
2023-04-10T16:52:33.426Z,15.88
2023-04-10T16:55:00.563Z,16.23
2023-04-10T16:57:27.731Z,14.73
2023-04-10T17:00:00.876Z,15.05
2023-04-10T17:02:29.807Z,15.35
2023-04-10T17:04:57.254Z,16.70
2023-04-10T17:07:24.436Z,16.48
2023-04-10T17:09:51.474Z,15.52
2023-04-10T17:12:18.593Z,16.27
2023-04-10T17:14:45.793Z,16.02
2023-04-10T17:17:12.917Z,17.00
2023-04-10T17:19:40.105Z,18.25
2023-04-10T17:22:16.047Z,16.45
2023-04-10T17:24:44.046Z,17.90
2023-04-10T17:27:11.580Z,15.18
2023-04-10T17:29:39.491Z,17.02
2023-04-10T17:32:08.065Z,15.75
2023-04-10T17:34:35.683Z,15.85
2023-04-10T17:37:02.770Z,16.70
2023-04-10T17:39:29.771Z,16.40
2023-04-10T17:41:56.982Z,15.93
2023-04-10T17:44:24.160Z,18.02
2023-04-10T17:46:51.261Z,16.73
2023-04-10T17:49:18.317Z,17.63
2023-04-10T17:51:45.586Z,17.60
2023-04-10T17:54:12.599Z,18.52
2023-04-10T17:56:39.603Z,18.80
2023-04-10T17:59:06.643Z,19.05
2023-04-10T18:01:33.707Z,20.17
2023-04-10T18:04:02.885Z,21.08
2023-04-10T18:06:30.358Z,19.80
2023-04-10T18:08:57.597Z,21.83
2023-04-10T18:11:25.499Z,22.52
2023-04-10T18:13:52.443Z,21.65
2023-04-10T18:16:19.473Z,21.38
2023-04-10T18:18:46.712Z,22.27
2023-04-10T18:21:13.895Z,23.13
2023-04-10T18:23:41.244Z,23.92
2023-04-10T18:26:08.261Z,25.33
2023-04-10T18:28:36.525Z,24.90
2023-04-10T18:31:03.682Z,23.30
2023-04-10T18:33:30.830Z,25.02
2023-04-10T18:35:59.177Z,25.77
2023-04-10T18:38:27.491Z,25.50
2023-04-10T18:40:56.703Z,26.30
2023-04-10T18:43:30.202Z,25.45
2023-04-10T18:45:57.228Z,26.42
2023-04-10T18:48:24.302Z,27.20
2023-04-10T18:50:54.331Z,27.48
2023-04-10T18:53:22.355Z,24.63
2023-04-10T18:55:54.043Z,24.55
2023-04-10T18:58:22.414Z,24.95
2023-04-10T19:00:49.747Z,26.25
2023-04-10T19:03:17.070Z,25.70
2023-04-10T19:05:44.559Z,23.80
2023-04-10T19:08:14.773Z,22.27
2023-04-10T19:10:42.653Z,22.67
2023-04-10T19:13:11.930Z,24.08
2023-04-10T19:15:43.409Z,23.58
2023-04-10T19:18:12.320Z,22.58
2023-04-10T19:20:52.451Z,22.02
2023-04-10T19:23:21.267Z,23.40
2023-04-10T19:25:55.027Z,25.13
2023-04-10T19:28:23.601Z,23.90
2023-04-10T19:30:50.844Z,21.92
2023-04-10T19:33:18.841Z,23.45
2023-04-10T19:35:45.935Z,22.58
2023-04-10T19:38:12.944Z,25.30
2023-04-10T19:40:40.095Z,23.83
2023-04-10T19:43:07.055Z,24.23
2023-04-10T19:45:36.954Z,24.23
2023-04-10T19:48:04.321Z,21.95
2023-04-10T19:50:31.608Z,24.02
2023-04-10T19:52:59.473Z,22.60
2023-04-10T19:55:26.754Z,23.05
2023-04-10T19:57:54.792Z,23.45
2023-04-10T20:00:21.969Z,25.23
2023-04-10T20:02:49.168Z,25.52
2023-04-10T20:05:16.274Z,27.95
2023-04-10T20:07:43.334Z,24.67
2023-04-10T20:10:10.737Z,29.77
2023-04-10T20:12:37.735Z,26.52
2023-04-10T20:15:05.595Z,26.42
2023-04-10T20:17:32.614Z,27.42
2023-04-10T20:19:59.626Z,27.90
2023-04-10T20:22:26.588Z,28.10
2023-04-10T20:24:53.548Z,28.20
2023-04-10T20:27:20.503Z,28.77
2023-04-10T20:29:47.454Z,27.17
2023-04-10T20:32:14.430Z,25.52
2023-04-10T20:34:41.423Z,27.13
2023-04-10T20:37:08.386Z,26.10
2023-04-10T20:39:37.772Z,27.92
2023-04-10T20:42:06.121Z,29.70
2023-04-10T20:44:36.678Z,28.33
2023-04-10T20:47:05.518Z,29.83
2023-04-10T20:49:32.559Z,28.05
2023-04-10T20:51:59.921Z,30.02
2023-04-10T20:54:27.384Z,30.63
2023-04-10T20:56:54.438Z,31.08
2023-04-10T20:59:21.438Z,29.67
2023-04-10T21:01:48.465Z,29.63
2023-04-10T21:04:15.605Z,31.20
2023-04-10T21:06:42.737Z,27.17
2023-04-10T21:09:09.793Z,27.10
2023-04-10T21:11:36.800Z,29.33
2023-04-10T21:14:03.887Z,28.83
2023-04-10T21:16:31.358Z,29.10
2023-04-10T21:18:58.387Z,29.83
2023-04-10T21:21:26.478Z,27.83
2023-04-10T21:23:54.081Z,27.05
2023-04-10T21:26:21.028Z,23.17
2023-04-10T21:28:47.970Z,24.55
2023-04-10T21:31:14.937Z,23.23
2023-04-10T21:33:42.823Z,22.30
2023-04-10T21:36:09.938Z,25.02
2023-04-10T21:38:36.958Z,24.25
2023-04-10T21:41:04.237Z,23.80
2023-04-10T21:43:31.261Z,23.42
2023-04-10T21:45:58.311Z,23.27
2023-04-10T21:48:25.817Z,22.90
2023-04-10T21:50:53.043Z,22.35
2023-04-10T21:53:20.082Z,24.52
2023-04-10T21:55:47.018Z,22.65
2023-04-10T21:58:14.040Z,22.25
2023-04-10T22:00:42.614Z,22.52
2023-04-10T22:03:09.955Z,23.60
2023-04-10T22:05:37.534Z,22.20
2023-04-10T22:08:04.572Z,21.92
2023-04-10T22:10:31.910Z,21.60
2023-04-10T22:12:58.990Z,22.15
2023-04-10T22:15:26.135Z,21.13
2023-04-10T22:17:53.525Z,20.63
2023-04-10T22:20:20.633Z,21.92
2023-04-10T22:22:47.604Z,22.55
2023-04-10T22:25:14.566Z,21.77
2023-04-10T22:27:41.516Z,21.15
2023-04-10T22:30:09.953Z,21.92
2023-04-10T22:32:37.184Z,21.77
2023-04-10T22:35:04.568Z,22.83
2023-04-10T22:37:31.527Z,23.45
2023-04-10T22:40:00.594Z,22.23
2023-04-10T22:42:29.325Z,22.08
2023-04-10T22:44:58.299Z,22.13
2023-04-10T22:47:25.410Z,23.50
2023-04-10T22:49:52.511Z,23.10
2023-04-10T22:52:19.435Z,22.73
2023-04-10T22:54:46.529Z,22.55
2023-04-10T22:57:13.457Z,22.58
2023-04-10T22:59:40.456Z,24.42
2023-04-10T23:02:07.528Z,24.45
2023-04-10T23:04:34.629Z,25.92
2023-04-10T23:07:01.578Z,24.25
2023-04-10T23:09:28.666Z,26.25
2023-04-10T23:11:56.558Z,22.92
2023-04-10T23:14:23.543Z,26.20
2023-04-10T23:16:50.622Z,23.35
2023-04-10T23:19:18.799Z,24.10
2023-04-10T23:21:45.893Z,25.38
2023-04-10T23:24:12.870Z,24.10
2023-04-10T23:26:39.789Z,25.13
2023-04-10T23:29:06.778Z,23.95
2023-04-10T23:31:33.727Z,23.95
2023-04-10T23:34:00.788Z,23.17
2023-04-10T23:36:27.759Z,24.40
2023-04-10T23:38:54.762Z,23.58
2023-04-10T23:41:21.827Z,23.42
2023-04-10T23:43:48.763Z,24.38
2023-04-10T23:46:15.774Z,23.73
2023-04-10T23:48:42.718Z,22.80
2023-04-10T23:51:09.705Z,24.88
2023-04-10T23:53:36.638Z,25.92
2023-04-10T23:56:03.591Z,24.33
2023-04-10T23:58:30.734Z,23.40
